Boaz, AL

9:23 PM CST on December 27, 2014 (GMT -0600)
Double Bridges | Change Station
CLOSE
Current Station
Personal Weather Station
Location: Boaz, AL
Elevation: 1066 ft
Nearby Weather Stations
Active Advisory: Flash Flood Watch

Elev 1066 ft 34.22 °N, 86.13 °W | Updated 15 seconds ago

Rain
Rain
50.9 °F
Feels Like 50.9 °F
N
2.2
Wind Variable Wind from SW

Today
High -- | Low -- °F
--% Chance of Precip.
Yesterday
High -- | Low -- °F
Precip. -- in
6:49 AM 4:42 PM
Waxing Crescent, 43% visible
Pressure 30.14 in
Visibility 10.0 miles
Clouds Overcast 1000 ft
Dew Point 50 °F
Humidity 98%
Rainfall 0.04 in
Snow Depth Not available.
UV 0 out of 12
Pollen .40 out of 12
Air Quality Not available.
Flu Activity Not available.
METAR K8A0 280315Z AUTO 15006KT 10SM -RA OVC010 11/11 A3014 RMK AO2

More Conditions Fewer Conditions

Pressure 30.14 in
Visibility 10.0 miles
Clouds Overcast 1000 ft
Dew Point 50 °F
Humidity 98%
Rainfall 0.04 in
Snow Depth Not available.
UV 0 out of 12
Pollen .40 out of 12
Air Quality Not available.
Flu Activity Not available.
METAR K8A0 280315Z AUTO 15006KT 10SM -RA OVC010 11/11 A3014 RMK AO2

More Conditions Fewer Conditions

10-Day Weather Forecast

Almanac

Astronomy

Dec. 27, 2014 Rise Set
Actual Time
Civil Twilight
Nautical Twilight
Astronomical Twilight
Moon
Length of Visible Light
Length of Day
Tomorrow will be .
, % of the Moon is Illuminated

Today's Extremes

State Highs State Lows

Community

WunderPhotos

Upload Photos

1,781,179 photos uploaded!

WunderBlogs® & News

Nearby

Air Quality

  Air Quality AQ Index Pollutant
Not available.

Snow Depth

Station Depth Elevation

Earthquake Activity

City Distance Mag. Time & Date
Minimum magnitude displayed is 2.5.

Coastal Water Temperatures

Place Temperature

Nearby Weather Stations